Time;durP1;ratioP1;P1;durP2;ratioP2;P2;SDS_P1;SDS_P2;PMS_P1;PMS_P2;Temp;Humidity;BMP_temperature;BMP_pressure;BME280_temperature;BME280_humidity;BME280_pressure;Samples;Min_cycle;Max_cycle;Signal;HPM_P1;HPM_P2
2023/04/03 00:01:06;;;;;;;10.27;9.27;;;-0.60;1.00;;;;;;5057653;28;20457;-66
2023/04/03 00:03:34;;;;;;;9.53;8.63;;;-0.70;1.00;;;;;;5057666;28;20462;-66
2023/04/03 00:06:03;;;;;;;10.10;9.00;;;-0.60;42.90;;;;;;5058080;28;20479;-66
2023/04/03 00:08:32;;;;;;;12.10;9.30;;;-0.60;99.90;;;;;;5057257;28;20466;-66
2023/04/03 00:10:59;;;;;;;9.97;9.00;;;-0.60;99.90;;;;;;5057480;28;20457;-66
2023/04/03 00:13:26;;;;;;;16.73;10.73;;;-0.60;99.90;;;;;;5057464;28;21041;-66
2023/04/03 00:15:54;;;;;;;14.67;12.43;;;-0.70;99.90;;;;;;5056594;28;20498;-66
2023/04/03 00:18:23;;;;;;;14.70;11.10;;;-0.70;99.90;;;;;;5054494;28;20760;-66
2023/04/03 00:20:50;;;;;;;20.40;12.80;;;-0.60;99.90;;;;;;5057480;28;20466;-66
2023/04/03 00:23:18;;;;;;;16.60;12.50;;;-0.60;99.90;;;;;;5056938;28;20745;-66
2023/04/03 00:25:45;;;;;;;16.07;11.70;;;-0.70;99.90;;;;;;5056989;28;20761;-65
2023/04/03 00:28:12;;;;;;;12.20;10.87;;;-0.70;99.90;;;;;;5057310;28;20558;-65
2023/04/03 00:30:39;;;;;;;12.70;10.30;;;-0.80;99.90;;;;;;5054758;28;20450;-65
2023/04/03 00:33:07;;;;;;;12.00;9.97;;;-0.90;99.90;;;;;;5056856;28;20846;-65
2023/04/03 00:35:38;;;;;;;16.87;11.47;;;-1.00;15.50;;;;;;5056266;28;20490;-65
2023/04/03 00:38:06;;;;;;;13.50;11.13;;;-1.00;1.00;;;;;;5056503;28;20488;-65
2023/04/03 00:40:36;;;;;;;13.73;11.40;;;-1.00;1.00;;;;;;5058163;28;20471;-65
2023/04/03 00:43:11;;;;;;;14.50;11.83;;;-1.00;99.90;;;;;;5058959;28;20780;-65
2023/04/03 00:45:40;;;;;;;16.73;12.73;;;-1.00;99.90;;;;;;5058406;28;20457;-65
2023/04/03 00:48:10;;;;;;;17.87;14.17;;;-1.10;99.90;;;;;;5058299;28;20469;-64
2023/04/03 00:50:42;;;;;;;19.20;14.27;;;-0.90;73.50;;;;;;5056809;28;20786;-64
2023/04/03 00:53:14;;;;;;;15.30;13.53;;;-0.90;99.90;;;;;;5059106;28;20456;-64
2023/04/03 00:55:44;;;;;;;16.73;14.10;;;-0.90;99.90;;;;;;5057202;28;20494;-64
2023/04/03 00:58:13;;;;;;;16.10;14.43;;;-1.00;99.90;;;;;;5059741;28;20488;-64
2023/04/03 01:00:44;;;;;;;16.43;14.60;;;-1.00;99.90;;;;;;5059368;28;20469;-64
2023/04/03 01:03:12;;;;;;;17.10;15.30;;;-1.00;99.90;;;;;;5059023;28;20498;-64
2023/04/03 01:05:41;;;;;;;16.70;14.50;;;-1.10;99.90;;;;;;5059883;28;20464;-64
2023/04/03 01:08:08;;;;;;;18.93;14.63;;;-1.10;99.90;;;;;;5059152;28;20560;-64
2023/04/03 01:10:36;;;;;;;17.90;16.10;;;-1.00;96.80;;;;;;5059207;28;20545;-64
2023/04/03 01:13:17;;;;;;;19.07;15.60;;;-1.10;65.60;;;;;;5059012;28;20444;-64
2023/04/03 01:15:45;;;;;;;17.90;16.00;;;-1.10;57.60;;;;;;5059338;28;20963;-64
2023/04/03 01:18:12;;;;;;;15.77;14.07;;;-1.10;99.90;;;;;;5057789;28;20913;-65
2023/04/03 01:21:26;;;;;;;16.70;14.93;;;-1.00;99.90;;;;;;5058193;28;21073;-64
2023/04/03 01:24:27;;;;;;;15.07;13.13;;;-1.10;35.10;;;;;;5058265;28;20507;-64
2023/04/03 01:26:54;;;;;;;16.80;11.97;;;-1.20;23.00;;;;;;5057510;28;20923;-64
2023/04/03 01:29:21;;;;;;;16.63;13.20;;;-1.20;99.90;;;;;;5058177;28;20486;-64
2023/04/03 01:31:53;;;;;;;15.37;13.57;;;-1.10;99.90;;;;;;5058308;28;20744;-64
2023/04/03 01:34:21;;;;;;;16.93;14.07;;;-1.10;99.90;;;;;;5059949;28;20463;-64
2023/04/03 01:36:48;;;;;;;14.57;13.07;;;-1.00;99.90;;;;;;5058532;28;20513;-64
2023/04/03 01:39:16;;;;;;;15.20;13.53;;;-1.10;99.90;;;;;;5059446;28;20967;-64
2023/04/03 01:41:43;;;;;;;17.10;15.30;;;-1.00;99.90;;;;;;5058362;28;20465;-65
2023/04/03 01:44:13;;;;;;;15.03;13.10;;;-1.00;99.90;;;;;;5057941;28;20448;-65
2023/04/03 01:46:42;;;;;;;17.10;12.70;;;-1.10;99.90;;;;;;5058665;28;20463;-65
2023/04/03 01:49:11;;;;;;;15.00;12.67;;;-1.20;99.90;;;;;;5058135;28;20628;-65
2023/04/03 01:51:38;;;;;;;16.83;13.53;;;-1.20;99.90;;;;;;5057630;28;20463;-65
2023/04/03 01:54:07;;;;;;;17.40;12.83;;;-1.10;99.90;;;;;;5057856;28;20467;-65
2023/04/03 01:56:34;;;;;;;15.90;12.33;;;-1.20;99.90;;;;;;5057804;28;20507;-65
2023/04/03 01:59:02;;;;;;;13.57;11.30;;;-1.10;99.90;;;;;;5058344;28;20473;-65
2023/04/03 02:01:29;;;;;;;14.40;11.27;;;-1.20;99.90;;;;;;5057314;28;20440;-65
2023/04/03 02:03:56;;;;;;;12.53;10.97;;;-1.30;99.90;;;;;;5056477;28;20493;-65
2023/04/03 02:06:25;;;;;;;11.60;10.50;;;-1.20;99.90;;;;;;5053056;28;20459;-65
2023/04/03 02:08:52;;;;;;;11.93;8.77;;;-1.20;99.90;;;;;;5047408;28;20473;-66
2023/04/03 02:11:20;;;;;;;14.00;9.47;;;-1.30;99.90;;;;;;5037149;28;20851;-65
2023/04/03 02:13:47;;;;;;;11.33;8.57;;;-1.20;99.90;;;;;;5056388;28;20475;-65
2023/04/03 02:16:14;;;;;;;11.00;8.60;;;-1.30;99.90;;;;;;5056444;28;20498;-65
2023/04/03 02:18:41;;;;;;;9.47;7.93;;;-1.20;99.90;;;;;;5056832;28;20468;-65
2023/04/03 02:21:09;;;;;;;9.80;8.57;;;-1.30;99.90;;;;;;5056925;28;20451;-65
2023/04/03 02:23:37;;;;;;;10.20;8.50;;;-1.30;99.90;;;;;;5056963;28;20765;-65
2023/04/03 02:26:07;;;;;;;14.47;11.13;;;-1.30;99.90;;;;;;5056440;28;20468;-65
2023/04/03 02:28:35;;;;;;;12.00;10.50;;;-1.30;99.90;;;;;;5056835;28;20520;-65
2023/04/03 02:31:03;;;;;;;15.93;11.40;;;-1.30;99.90;;;;;;5056369;28;20542;-65
2023/04/03 02:33:30;;;;;;;12.50;10.67;;;-1.30;99.90;;;;;;5056070;28;20468;-65
2023/04/03 02:35:59;;;;;;;15.13;11.40;;;-1.30;99.90;;;;;;5054954;28;20886;-65
2023/04/03 02:38:28;;;;;;;16.77;11.07;;;-1.40;99.90;;;;;;5054945;28;20584;-65
2023/04/03 02:41:02;;;;;;;12.17;10.10;;;-1.40;99.90;;;;;;5055294;28;20433;-66
2023/04/03 02:43:29;;;;;;;13.33;11.50;;;-1.40;99.90;;;;;;5054633;28;20919;-65
2023/04/03 02:45:57;;;;;;;14.63;10.90;;;-1.40;99.90;;;;;;5054867;28;20438;-65
2023/04/03 02:48:25;;;;;;;13.47;10.50;;;-1.40;99.90;;;;;;5055312;28;20458;-66
2023/04/03 02:50:52;;;;;;;16.33;11.17;;;-1.30;99.90;;;;;;5052214;28;20840;-66
2023/04/03 02:53:20;;;;;;;11.43;10.00;;;-1.40;99.90;;;;;;5054751;28;20460;-65
2023/04/03 02:55:47;;;;;;;13.67;10.30;;;-1.30;99.90;;;;;;5054302;28;20497;-66
2023/04/03 02:58:16;;;;;;;15.00;10.10;;;-1.30;99.90;;;;;;5053840;28;20471;-65
2023/04/03 03:00:43;;;;;;;10.83;9.73;;;-1.30;99.90;;;;;;5054385;28;20560;-65
2023/04/03 03:03:11;;;;;;;13.23;10.53;;;-1.30;99.90;;;;;;5054761;28;20456;-66
2023/04/03 03:05:38;;;;;;;11.23;9.23;;;-1.20;99.90;;;;;;5055018;28;20463;-66
2023/04/03 03:08:05;;;;;;;9.83;8.73;;;-1.20;99.90;;;;;;5050559;28;20880;-65
2023/04/03 03:10:32;;;;;;;15.00;9.83;;;-1.10;99.90;;;;;;5038135;28;20469;-66
2023/04/03 03:13:00;;;;;;;11.40;9.10;;;-1.10;99.90;;;;;;5047054;28;20694;-66
2023/04/03 03:15:28;;;;;;;10.13;7.70;;;-1.10;99.90;;;;;;5055224;28;20510;-66
2023/04/03 03:17:55;;;;;;;11.27;8.67;;;-1.00;99.90;;;;;;5058545;28;20549;-65
2023/04/03 03:20:23;;;;;;;10.13;8.97;;;-1.00;99.90;;;;;;5058569;28;20482;-66
2023/04/03 03:22:50;;;;;;;12.13;8.63;;;-0.90;99.90;;;;;;5058314;28;20463;-66
2023/04/03 03:25:17;;;;;;;15.03;9.40;;;-0.90;99.90;;;;;;5057775;28;20452;-66
2023/04/03 03:27:45;;;;;;;15.90;10.00;;;-0.90;99.90;;;;;;5044694;28;20475;-66
2023/04/03 03:30:13;;;;;;;12.90;8.97;;;-0.80;99.90;;;;;;5049221;28;20464;-66
2023/04/03 03:32:42;;;;;;;9.47;8.47;;;-0.80;99.90;;;;;;5057838;28;20770;-66
2023/04/03 03:35:10;;;;;;;12.33;9.70;;;-0.80;99.90;;;;;;5058105;28;20478;-66
2023/04/03 03:37:38;;;;;;;10.63;9.53;;;-0.90;99.90;;;;;;5057424;28;20487;-66
2023/04/03 03:40:06;;;;;;;15.37;9.17;;;-0.90;99.90;;;;;;5058148;28;20458;-66
2023/04/03 03:42:33;;;;;;;11.20;8.80;;;-0.90;99.90;;;;;;5057690;28;20473;-66
2023/04/03 03:45:01;;;;;;;13.40;10.27;;;-0.90;99.90;;;;;;5057937;28;20469;-66
2023/04/03 03:47:30;;;;;;;11.20;8.43;;;-0.90;99.90;;;;;;5057466;28;20456;-66
2023/04/03 03:49:59;;;;;;;8.90;8.00;;;-0.90;99.90;;;;;;5058194;28;20453;-66
2023/04/03 03:52:26;;;;;;;10.53;8.87;;;-0.90;99.90;;;;;;5057562;28;20485;-66
2023/04/03 03:54:53;;;;;;;11.37;8.97;;;-0.90;99.90;;;;;;5056860;28;20433;-66
2023/04/03 03:57:21;;;;;;;11.57;9.10;;;-1.00;99.90;;;;;;5056392;28;20912;-66
2023/04/03 03:59:48;;;;;;;10.63;8.27;;;-0.80;99.90;;;;;;5057090;28;20466;-66
2023/04/03 04:02:16;;;;;;;14.73;8.23;;;-0.80;99.90;;;;;;5057297;28;20904;-66
2023/04/03 04:04:43;;;;;;;12.07;8.40;;;-0.80;99.90;;;;;;5056781;28;20517;-66
2023/04/03 04:07:12;;;;;;;8.93;8.03;;;-0.90;99.90;;;;;;5056732;28;20475;-66
2023/04/03 04:09:39;;;;;;;10.07;7.70;;;-0.90;99.90;;;;;;5057635;28;20461;-66
2023/04/03 04:12:06;;;;;;;10.33;8.53;;;-0.90;99.90;;;;;;5056447;28;20922;-66
2023/04/03 04:14:33;;;;;;;9.87;8.40;;;-1.00;99.90;;;;;;5057377;28;20894;-66
2023/04/03 04:17:03;;;;;;;8.17;7.00;;;-1.00;99.90;;;;;;5055812;28;20460;-66
2023/04/03 04:19:30;;;;;;;13.60;7.50;;;-1.00;99.90;;;;;;5056828;28;20460;-66
2023/04/03 04:21:57;;;;;;;8.97;7.10;;;-1.10;99.90;;;;;;5057496;28;20471;-65
2023/04/03 04:24:26;;;;;;;9.97;7.30;;;-1.10;99.90;;;;;;5055140;28;20463;-65
2023/04/03 04:26:53;;;;;;;9.23;8.20;;;-1.10;99.90;;;;;;5056951;28;20804;-66
2023/04/03 04:29:21;;;;;;;9.10;8.10;;;-1.20;35.70;;;;;;5058536;28;20805;-65
2023/04/03 04:31:48;;;;;;;10.80;8.80;;;-1.30;1.00;;;;;;5058617;28;20445;-65
2023/04/03 04:34:15;;;;;;;13.23;8.20;;;-1.20;1.00;;;;;;5058371;28;20466;-65
2023/04/03 04:36:43;;;;;;;10.63;8.27;;;-1.40;1.00;;;;;;5057903;28;20461;-65
2023/04/03 04:39:10;;;;;;;11.93;8.90;;;-1.40;1.00;;;;;;5058276;28;20875;-65
2023/04/03 04:41:38;;;;;;;10.60;7.67;;;-1.40;1.00;;;;;;5057815;28;20460;-65
2023/04/03 04:44:06;;;;;;;11.80;7.70;;;-1.40;1.00;;;;;;5058718;28;20447;-65
2023/04/03 04:46:33;;;;;;;12.23;7.60;;;-1.30;1.00;;;;;;5057417;28;20945;-65
2023/04/03 04:49:00;;;;;;;11.30;6.67;;;-1.40;34.00;;;;;;5057219;28;20919;-65
2023/04/03 04:51:28;;;;;;;11.37;8.77;;;-1.30;49.60;;;;;;5056450;28;20469;-65
2023/04/03 04:53:55;;;;;;;7.50;6.53;;;-1.40;39.90;;;;;;5056121;28;20438;-66
2023/04/03 04:56:22;;;;;;;11.83;7.20;;;-1.30;99.70;;;;;;5055261;28;20494;-66
2023/04/03 04:58:51;;;;;;;14.13;7.20;;;-1.30;99.90;;;;;;5053608;28;20466;-65
2023/04/03 05:01:18;;;;;;;8.33;6.20;;;-1.30;99.90;;;;;;5054644;28;20456;-66
2023/04/03 05:03:47;;;;;;;9.90;7.23;;;-1.20;99.90;;;;;;5055706;28;20808;-65
2023/04/03 05:06:14;;;;;;;10.80;7.03;;;-1.20;99.90;;;;;;5055537;28;20726;-66
2023/04/03 05:08:41;;;;;;;10.30;6.27;;;-1.20;99.90;;;;;;5055675;28;20433;-66
2023/04/03 05:11:09;;;;;;;8.63;6.40;;;-1.10;99.90;;;;;;5056446;28;20545;-65
2023/04/03 05:13:36;;;;;;;8.27;6.50;;;-1.10;99.90;;;;;;5054603;28;20569;-65
2023/04/03 05:16:06;;;;;;;8.63;6.43;;;-1.10;99.90;;;;;;5054311;28;20483;-65
2023/04/03 05:18:33;;;;;;;8.43;6.37;;;-1.00;99.90;;;;;;5054393;28;20465;-65
2023/04/03 05:21:01;;;;;;;9.97;6.80;;;-1.00;99.90;;;;;;5054929;28;20922;-65
2023/04/03 05:23:28;;;;;;;10.43;6.90;;;-0.90;99.90;;;;;;5055791;28;20471;-65
2023/04/03 05:25:55;;;;;;;10.60;6.07;;;-0.90;99.90;;;;;;5055622;28;20503;-66
2023/04/03 05:28:23;;;;;;;8.20;5.93;;;-0.90;99.90;;;;;;5054486;28;20433;-66
2023/04/03 05:30:55;;;;;;;10.70;7.30;;;-0.90;99.90;;;;;;5057611;28;20778;-66
2023/04/03 05:33:24;;;;;;;8.27;6.00;;;-0.80;99.90;;;;;;5057575;28;20489;-66
2023/04/03 05:35:52;;;;;;;7.90;5.80;;;-0.80;99.90;;;;;;5057415;28;20487;-65
2023/04/03 05:38:20;;;;;;;12.20;5.87;;;-0.70;99.90;;;;;;5053945;28;20489;-65
2023/04/03 05:40:47;;;;;;;7.33;5.60;;;-0.70;99.90;;;;;;5054085;28;20455;-65
2023/04/03 05:43:15;;;;;;;10.63;6.80;;;-0.70;51.40;;;;;;5054587;28;20465;-65
2023/04/03 05:45:43;;;;;;;12.63;7.87;;;-0.60;1.00;;;;;;5055269;28;20889;-65
2023/04/03 05:48:10;;;;;;;12.33;7.50;;;-0.60;1.00;;;;;;5054527;28;20461;-65
2023/04/03 05:50:41;;;;;;;10.00;7.17;;;-0.60;1.00;;;;;;5051958;28;20448;-65
2023/04/03 05:53:12;;;;;;;10.43;6.60;;;-0.50;1.00;;;;;;5055072;28;20511;-65
2023/04/03 05:55:39;;;;;;;10.43;6.53;;;-0.50;1.00;;;;;;5055092;28;20456;-65
2023/04/03 05:58:06;;;;;;;9.93;6.57;;;-0.50;1.00;;;;;;5056754;28;20455;-65
2023/04/03 06:00:33;;;;;;;11.17;6.37;;;-0.40;1.00;;;;;;5055834;28;20488;-64
2023/04/03 06:03:01;;;;;;;12.90;6.23;;;-0.30;1.00;;;;;;5055948;28;20547;-64
2023/04/03 06:05:28;;;;;;;13.40;5.60;;;-0.20;1.00;;;;;;5055567;28;20459;-65
2023/04/03 06:07:57;;;;;;;9.40;5.27;;;-0.10;1.00;;;;;;5056381;28;20515;-65
2023/04/03 06:10:24;;;;;;;9.80;6.03;;;0.00;1.00;;;;;;5055629;28;20459;-64
2023/04/03 06:12:52;;;;;;;9.50;5.10;;;0.20;1.00;;;;;;5055643;28;20469;-64
2023/04/03 06:15:20;;;;;;;9.70;5.60;;;0.40;99.90;;;;;;5054158;28;20748;-63
2023/04/03 06:17:50;;;;;;;12.43;5.63;;;0.40;99.90;;;;;;5057219;28;20875;-64
2023/04/03 06:20:17;;;;;;;8.90;5.00;;;0.60;99.90;;;;;;5056880;28;20476;-63
2023/04/03 06:22:44;;;;;;;10.50;4.67;;;0.70;99.90;;;;;;5055686;28;20471;-63
2023/04/03 06:25:13;;;;;;;6.80;4.87;;;0.80;1.00;;;;;;5054537;28;20965;-63
2023/04/03 06:27:42;;;;;;;12.73;5.03;;;0.90;1.00;;;;;;5052508;28;20551;-62
2023/04/03 06:30:10;;;;;;;9.33;4.53;;;1.10;99.90;;;;;;5055409;28;20488;-63
2023/04/03 06:32:38;;;;;;;9.80;5.30;;;1.20;18.20;;;;;;5055907;28;20544;-63
2023/04/03 06:35:06;;;;;;;9.90;4.97;;;1.40;1.00;;;;;;5055554;28;20880;-64
2023/04/03 06:37:34;;;;;;;6.67;4.67;;;1.50;99.90;;;;;;5053664;28;20505;-64
2023/04/03 06:40:01;;;;;;;11.53;4.93;;;1.60;99.90;;;;;;5054833;28;20466;-65
2023/04/03 06:42:30;;;;;;;6.90;4.23;;;1.70;99.90;;;;;;5053462;28;20491;-63
2023/04/03 06:44:57;;;;;;;7.27;4.63;;;1.80;66.70;;;;;;5054380;28;20795;-65
2023/04/03 06:47:24;;;;;;;7.30;4.37;;;1.90;1.00;;;;;;5054066;28;20458;-65
2023/04/03 06:49:51;;;;;;;6.80;4.40;;;2.10;1.00;;;;;;5053354;28;20462;-65
2023/04/03 06:52:18;;;;;;;9.80;4.20;;;2.30;1.00;;;;;;5057298;28;20470;-66
2023/04/03 06:54:45;;;;;;;7.27;4.70;;;2.60;1.00;;;;;;5059252;28;20472;-67
2023/04/03 06:57:13;;;;;;;6.53;4.33;;;2.80;1.00;;;;;;5057374;28;20498;-65
2023/04/03 06:59:42;;;;;;;6.23;4.10;;;3.00;1.00;;;;;;5060237;28;20448;-65
2023/04/03 07:02:12;;;;;;;10.93;4.40;;;3.20;1.00;;;;;;5059987;28;20985;-64
2023/04/03 07:04:39;;;;;;;6.87;3.87;;;3.30;1.00;;;;;;5059630;28;20466;-65
2023/04/03 07:07:07;;;;;;;8.13;3.90;;;3.60;1.00;;;;;;5059589;28;20868;-65
2023/04/03 07:09:34;;;;;;;6.57;4.03;;;3.90;1.00;;;;;;5059634;28;20781;-66
2023/04/03 07:12:01;;;;;;;7.90;3.40;;;4.10;1.00;;;;;;5059245;28;20762;-66
2023/04/03 07:14:28;;;;;;;6.97;4.37;;;4.30;1.00;;;;;;5059739;28;20458;-67
2023/04/03 07:16:57;;;;;;;6.87;3.53;;;4.40;1.00;;;;;;5059740;28;20535;-66
2023/04/03 07:19:27;;;;;;;7.90;3.90;;;4.50;1.00;;;;;;5059541;28;20761;-67
2023/04/03 07:21:55;;;;;;;6.47;4.03;;;4.50;99.90;;;;;;5059246;28;20468;-68
2023/04/03 07:24:22;;;;;;;7.30;3.57;;;4.50;99.90;;;;;;5057199;28;20529;-68
2023/04/03 07:26:51;;;;;;;6.47;4.00;;;4.50;99.90;;;;;;5057780;28;20473;-69
2023/04/03 07:29:18;;;;;;;6.23;3.00;;;4.80;99.90;;;;;;5058212;28;20501;-69
2023/04/03 07:31:45;;;;;;;7.40;3.40;;;5.10;99.90;;;;;;5057787;28;20469;-68
2023/04/03 07:34:14;;;;;;;7.07;2.80;;;5.30;99.90;;;;;;5057719;28;20564;-68
2023/04/03 07:36:41;;;;;;;5.20;3.10;;;4.90;99.90;;;;;;5056458;28;20944;-68
2023/04/03 07:39:08;;;;;;;5.93;3.37;;;5.10;99.90;;;;;;5056299;28;20466;-67
2023/04/03 07:41:36;;;;;;;6.83;3.10;;;5.20;99.90;;;;;;5058111;28;20462;-67
2023/04/03 07:44:04;;;;;;;6.43;3.40;;;5.20;99.90;;;;;;5057932;28;20473;-67
2023/04/03 07:46:31;;;;;;;5.30;3.33;;;5.20;99.90;;;;;;5058794;28;20535;-68
2023/04/03 07:48:58;;;;;;;7.60;3.73;;;5.30;99.90;;;;;;5058673;28;20758;-68
2023/04/03 07:51:28;;;;;;;5.70;3.20;;;5.70;99.90;;;;;;5058830;28;20458;-68
2023/04/03 07:53:55;;;;;;;7.50;3.10;;;5.50;99.90;;;;;;5057594;28;20506;-67
2023/04/03 07:56:22;;;;;;;6.43;4.00;;;5.30;99.90;;;;;;5057770;28;20473;-68
2023/04/03 07:58:49;;;;;;;5.60;3.80;;;5.70;99.90;;;;;;5057642;28;20459;-68
2023/04/03 08:01:17;;;;;;;4.47;3.13;;;5.80;99.90;;;;;;5057672;28;20467;-68
2023/04/03 08:03:44;;;;;;;8.20;3.10;;;5.80;99.90;;;;;;5058254;28;20820;-68
2023/04/03 08:06:12;;;;;;;6.33;3.50;;;5.90;99.90;;;;;;5059049;28;20458;-68
2023/04/03 08:08:41;;;;;;;5.20;3.23;;;6.00;99.90;;;;;;5058156;28;20466;-68
2023/04/03 08:11:08;;;;;;;5.20;2.60;;;5.60;99.90;;;;;;5058242;28;20473;-68
2023/04/03 08:13:35;;;;;;;6.63;3.23;;;6.20;99.90;;;;;;5058482;28;20489;-68
2023/04/03 08:16:10;;;;;;;5.57;2.90;;;6.40;99.90;;;;;;5058611;28;20721;-68
2023/04/03 08:18:37;;;;;;;8.67;3.53;;;6.60;99.90;;;;;;5058639;28;20497;-68
2023/04/03 08:21:07;;;;;;;10.80;3.77;;;7.00;99.90;;;;;;5055727;28;20473;-67
2023/04/03 08:23:34;;;;;;;4.87;2.80;;;7.30;99.90;;;;;;5055541;28;20469;-66
2023/04/03 08:26:09;;;;;;;7.40;3.03;;;7.40;99.90;;;;;;5058420;28;20554;-66
2023/04/03 08:28:36;;;;;;;4.20;2.97;;;7.50;99.90;;;;;;5053786;28;20897;-66
2023/04/03 08:31:07;;;;;;;3.60;3.30;;;7.60;99.90;;;;;;5058913;28;20462;-66
2023/04/03 08:33:35;;;;;;;5.37;3.30;;;8.00;99.90;;;;;;5059027;28;20876;-66
2023/04/03 08:36:04;;;;;;;6.17;2.93;;;8.30;99.90;;;;;;5059140;28;20825;-66
2023/04/03 08:38:31;;;;;;;5.37;2.90;;;8.00;99.90;;;;;;5058917;28;20958;-66
2023/04/03 08:41:05;;;;;;;4.07;2.53;;;8.30;99.90;;;;;;5058803;28;20470;-67
2023/04/03 08:43:40;;;;;;;3.63;2.70;;;8.40;99.90;;;;;;5059082;28;20461;-66
2023/04/03 08:46:13;;;;;;;4.20;2.93;;;8.70;99.90;;;;;;5055501;28;20486;-66
2023/04/03 08:48:43;;;;;;;6.17;3.27;;;8.80;99.90;;;;;;5056030;28;20470;-66
2023/04/03 08:51:15;;;;;;;9.17;2.97;;;8.90;99.90;;;;;;5057528;28;20438;-66
2023/04/03 08:53:47;;;;;;;4.37;2.70;;;9.10;99.90;;;;;;5057225;28;20857;-66
2023/04/03 08:56:18;;;;;;;5.83;3.10;;;8.80;99.90;;;;;;5058078;28;20778;-66
2023/04/03 08:58:52;;;;;;;5.47;2.90;;;8.10;99.90;;;;;;5057460;28;20918;-65
2023/04/03 09:01:22;;;;;;;7.57;2.73;;;8.60;99.90;;;;;;5057701;28;20898;-65
2023/04/03 09:03:49;;;;;;;4.20;2.50;;;8.60;99.90;;;;;;5058446;28;20557;-65
2023/04/03 09:06:21;;;;;;;8.67;3.50;;;8.80;99.90;;;;;;5057742;28;20462;-65
2023/04/03 09:08:54;;;;;;;4.37;2.80;;;9.10;99.90;;;;;;5057588;28;20462;-65
2023/04/03 09:11:27;;;;;;;6.37;3.57;;;9.20;99.90;;;;;;5058314;28;20469;-65
2023/04/03 09:14:00;;;;;;;4.30;2.50;;;8.80;99.90;;;;;;5057576;28;20454;-65
2023/04/03 09:16:37;;;;;;;7.20;2.80;;;9.00;99.90;;;;;;5057788;28;20466;-65
2023/04/03 09:19:16;;;;;;;3.67;2.73;;;9.10;99.90;;;;;;5057502;28;20452;-65
2023/04/03 09:21:44;;;;;;;5.63;3.00;;;9.10;99.90;;;;;;5056600;28;20462;-65
2023/04/03 09:24:14;;;;;;;3.43;2.40;;;8.40;99.90;;;;;;5057816;28;20462;-65
2023/04/03 09:26:45;;;;;;;5.93;3.10;;;8.30;99.90;;;;;;5057598;28;20822;-65
2023/04/03 09:29:20;;;;;;;4.70;3.00;;;8.80;99.90;;;;;;5057865;28;20734;-65
2023/04/03 09:31:53;;;;;;;4.60;2.90;;;9.20;99.90;;;;;;5057804;28;20552;-65
2023/04/03 09:34:27;;;;;;;7.03;2.80;;;9.10;99.90;;;;;;5057680;28;20484;-65
2023/04/03 09:36:55;;;;;;;5.43;2.77;;;9.70;99.90;;;;;;5057457;28;20490;-64
2023/04/03 09:39:24;;;;;;;4.20;2.90;;;9.90;99.90;;;;;;5057355;28;20468;-66
2023/04/03 09:42:02;;;;;;;7.63;2.70;;;10.50;99.90;;;;;;5057991;28;20485;-65
2023/04/03 09:44:32;;;;;;;7.93;2.77;;;10.60;99.90;;;;;;5057048;28;20758;-65
2023/04/03 09:47:00;;;;;;;4.77;2.70;;;10.30;99.90;;;;;;5057008;28;20458;-65
2023/04/03 09:49:27;;;;;;;3.50;2.60;;;10.20;99.90;;;;;;5056871;28;20477;-65
2023/04/03 09:51:55;;;;;;;5.07;2.57;;;10.00;99.90;;;;;;5056766;28;20462;-64
2023/04/03 09:54:39;;;;;;;5.90;2.60;;;10.60;99.90;;;;;;5056300;28;20466;-65
2023/04/03 09:57:11;;;;;;;5.03;2.40;;;11.10;99.90;;;;;;5057542;28;20462;-67
2023/04/03 09:59:45;;;;;;;4.63;2.27;;;10.90;99.90;;;;;;5050941;28;20779;-66
2023/04/03 10:02:38;;;;;;;4.30;2.20;;;10.60;99.90;;;;;;5036002;28;20767;-65
2023/04/03 10:05:28;;;;;;;4.13;2.27;;;10.60;99.90;;;;;;5034094;28;20528;-65
2023/04/03 10:08:09;;;;;;;4.20;2.70;;;10.60;99.90;;;;;;5035445;28;20462;-65
2023/04/03 10:10:37;;;;;;;3.40;2.40;;;10.90;99.90;;;;;;5035708;28;20465;-65
2023/04/03 10:13:08;;;;;;;3.23;2.33;;;11.10;99.90;;;;;;5036525;28;20459;-65
2023/04/03 10:15:43;;;;;;;4.37;1.90;;;11.30;99.90;;;;;;5046956;28;20951;-65
2023/04/03 10:18:29;;;;;;;4.00;2.13;;;11.70;99.90;;;;;;5056895;28;20839;-69
2023/04/03 10:21:04;;;;;;;1.93;1.57;;;11.70;99.90;;;;;;5055817;28;20458;-65
2023/04/03 10:23:41;;;;;;;3.40;1.70;;;11.70;99.90;;;;;;5055478;28;20463;-65
2023/04/03 10:26:21;;;;;;;3.47;2.00;;;11.30;99.90;;;;;;5055601;28;20458;-64
2023/04/03 10:28:58;;;;;;;2.83;1.80;;;11.10;99.90;;;;;;5058991;28;20446;-65
2023/04/03 10:31:34;;;;;;;3.93;1.60;;;11.50;99.90;;;;;;5058989;28;20511;-64
2023/04/03 10:34:06;;;;;;;2.50;1.97;;;11.70;99.90;;;;;;5057795;28;20918;-62
2023/04/03 10:36:42;;;;;;;3.53;2.17;;;12.00;99.90;;;;;;5061091;28;20458;-60
2023/04/03 10:39:20;;;;;;;2.40;1.90;;;12.20;99.90;;;;;;5060888;28;20938;-60
2023/04/03 10:42:00;;;;;;;2.93;2.20;;;12.10;99.90;;;;;;5061084;28;20461;-57
2023/04/03 10:44:38;;;;;;;4.80;2.23;;;12.10;99.90;;;;;;5060371;28;20461;-60
2023/04/03 10:47:15;;;;;;;2.80;2.00;;;12.40;99.90;;;;;;5060742;28;20437;-60
2023/04/03 10:49:52;;;;;;;3.43;2.10;;;12.40;99.90;;;;;;5060899;28;20871;-60
2023/04/03 10:52:24;;;;;;;1.97;1.43;;;12.60;99.90;;;;;;5059953;28;20468;-60
2023/04/03 10:55:03;;;;;;;2.10;1.90;;;12.40;99.90;;;;;;5060696;28;20462;-63
2023/04/03 10:57:31;;;;;;;2.13;1.93;;;12.40;99.90;;;;;;5060596;28;20592;-60
2023/04/03 11:00:02;;;;;;;2.27;2.07;;;12.40;99.90;;;;;;5060443;28;20472;-60
2023/04/03 11:02:34;;;;;;;1.93;1.73;;;12.60;99.90;;;;;;5060019;28;20906;-60
2023/04/03 11:05:04;;;;;;;2.60;1.60;;;12.80;99.90;;;;;;5059768;28;20796;-59
2023/04/03 11:07:38;;;;;;;2.80;2.03;;;12.30;99.90;;;;;;5060152;28;20462;-60
2023/04/03 11:10:14;;;;;;;3.33;1.87;;;12.60;99.90;;;;;;5059838;28;20462;-59
2023/04/03 11:12:45;;;;;;;2.90;2.20;;;12.50;99.90;;;;;;5058701;28;20465;-60
2023/04/03 11:15:16;;;;;;;3.83;2.00;;;12.60;99.90;;;;;;5057610;28;20749;-59
2023/04/03 11:17:50;;;;;;;2.43;2.00;;;12.30;99.90;;;;;;5059583;28;20500;-59
2023/04/03 11:20:21;;;;;;;4.37;2.27;;;12.40;99.90;;;;;;5058234;28;20457;-59
2023/04/03 11:22:52;;;;;;;1.73;1.60;;;12.60;99.90;;;;;;5058571;28;20457;-59
2023/04/03 11:25:23;;;;;;;4.40;2.40;;;12.90;99.90;;;;;;5059207;28;20755;-59
2023/04/03 11:27:55;;;;;;;3.20;1.67;;;13.20;99.90;;;;;;5059865;28;20458;-59
2023/04/03 11:30:27;;;;;;;3.10;2.00;;;12.90;99.90;;;;;;5058538;28;20520;-63
2023/04/03 11:33:24;;;;;;;3.10;2.30;;;12.20;99.90;;;;;;5055513;28;20459;-61
2023/04/03 11:35:56;;;;;;;2.67;2.20;;;12.70;99.90;;;;;;5049277;28;20804;-63
2023/04/03 11:38:29;;;;;;;4.90;2.33;;;12.30;99.90;;;;;;5058643;28;20805;-63
2023/04/03 11:40:57;;;;;;;2.90;2.17;;;12.60;99.90;;;;;;5059574;28;20883;-63
2023/04/03 11:43:27;;;;;;;2.63;2.13;;;12.40;99.90;;;;;;5059641;28;20466;-63
2023/04/03 11:46:00;;;;;;;2.83;2.50;;;12.50;99.90;;;;;;5059231;28;20469;-63
2023/04/03 11:48:58;;;;;;;2.07;1.80;;;11.80;99.90;;;;;;5058355;28;20462;-63
2023/04/03 11:51:43;;;;;;;3.57;2.20;;;12.00;99.90;;;;;;4976133;28;20476;-62
2023/04/03 11:54:45;;;;;;;3.00;2.70;;;12.40;99.90;;;;;;5049490;28;20458;-63
2023/04/03 11:57:46;;;;;;;4.60;2.50;;;12.30;99.90;;;;;;5013377;28;20469;-62
2023/04/03 12:00:47;;;;;;;3.07;2.20;;;12.80;99.90;;;;;;5024818;28;20531;-62
2023/04/03 12:04:05;;;;;;;5.10;1.97;;;12.80;99.90;;;;;;5041770;28;20474;-62
2023/04/03 12:07:17;;;;;;;5.90;2.73;;;12.70;99.90;;;;;;5058252;28;20466;-62
2023/04/03 12:10:19;;;;;;;2.70;2.10;;;12.80;99.90;;;;;;5055790;28;20462;-62
2023/04/03 12:13:02;;;;;;;2.47;1.50;;;13.00;99.90;;;;;;5057870;28;20465;-62
2023/04/03 12:15:57;;;;;;;3.60;2.07;;;13.10;99.90;;;;;;5052497;28;20577;-61
2023/04/03 12:19:00;;;;;;;2.23;2.03;;;13.40;99.90;;;;;;5055472;28;20580;-59
2023/04/03 12:22:00;;;;;;;2.07;1.87;;;13.60;99.90;;;;;;5056019;28;20461;-60
2023/04/03 12:24:29;;;;;;;3.37;2.40;;;13.60;99.90;;;;;;5056229;28;20462;-61
2023/04/03 12:27:15;;;;;;;2.30;2.00;;;14.10;99.90;;;;;;5055995;28;20466;-61
2023/04/03 12:29:48;;;;;;;2.87;1.87;;;13.10;99.90;;;;;;5057606;28;20462;-61
2023/04/03 12:32:27;;;;;;;3.13;2.20;;;12.60;99.90;;;;;;5056733;28;20468;-60
2023/04/03 12:35:11;;;;;;;3.20;2.33;;;12.90;99.90;;;;;;5057602;28;20462;-61
2023/04/03 12:37:52;;;;;;;3.40;2.40;;;13.70;99.90;;;;;;5057152;28;20461;-61
2023/04/03 12:40:28;;;;;;;3.20;2.17;;;13.20;99.90;;;;;;5057513;28;20461;-60
2023/04/03 12:43:14;;;;;;;4.17;2.00;;;13.50;99.90;;;;;;5058738;28;20881;-61
2023/04/03 12:45:45;;;;;;;3.03;2.10;;;13.80;99.90;;;;;;5058557;28;20506;-61
2023/04/03 12:48:18;;;;;;;2.57;2.00;;;13.90;99.90;;;;;;5058059;28;20469;-61
2023/04/03 12:50:48;;;;;;;4.90;2.60;;;13.70;99.90;;;;;;5057145;28;20472;-61
2023/04/03 12:53:19;;;;;;;2.60;2.00;;;13.60;99.90;;;;;;5058108;28;20950;-61
2023/04/03 12:55:46;;;;;;;3.03;2.50;;;13.60;99.90;;;;;;5057445;28;20470;-61
2023/04/03 12:58:23;;;;;;;2.90;2.60;;;13.80;99.90;;;;;;5056279;28;20525;-61
2023/04/03 13:01:02;;;;;;;3.37;2.00;;;14.00;99.90;;;;;;5057871;28;20466;-61
2023/04/03 13:03:30;;;;;;;5.33;2.67;;;14.00;99.90;;;;;;5057868;28;20968;-61
2023/04/03 13:06:00;;;;;;;2.80;2.33;;;14.30;99.90;;;;;;5056792;28;20469;-61